Loisir ou Compétition : Rejoignez un Club de la Fédération

Résultats

7ème Coupe de la Fédération - Trophée SAMSE (1er jour)

ALPE D'HUEZ

GS Dames

Jury de Compétition

Délégué Technique :
JOURDAN FRANCOIS (SA)
Arbitre :
GUIGNIER CLAUDE (DA)
Assistant :
 
Dir. Epreuve :
JOUNIAUX HERVE (DA)

Caractéristiques de la Piste

Piste :
SIGNAL D'HUEZ
Départ :
2055
Arrivée :
1862
Dénivelé :
193
Homologation :
3079/01/14

Manche 1

Nombre de Portes :
27
Heure de Départ :
8H15
Traceur :
PANTYRA EMMANUEL (DA)
Ouvreurs A :
RENARD PABLO (DA)
Ouvreurs B :
VACHER MATERNO ROMANE (DA)
Ouvreurs C :
 
Ouvreurs D :
 
Ouvreurs E :
 
Temps :
BEAU
Neige :
DURE

Manche 2

Nombre de Portes :
27
Heure de Départ :
10H15
Traceur :
GRAVES MICKAEL (DA)
Ouvreurs A :
RENARD PABLO (DA)
Ouvreurs B :
VACHER MATERNO ROMANE (DA)
Ouvreurs C :
 
Ouvreurs D :
 
Ouvreurs E :
 
Température Départ :
 
Température Arrivée :
 

Pénalité Appliquée :
107.9700

Catégorie :
U16
Clt Dos Clt/Cat Code An Nom Prénom Com Club Tps M1 Tps M2 Tps Tot Pts
Classés
1 25 1/U16 FFS2657008 2003 FOURNIER ZALIE MB SC GD BORNAN 41.95 44.18 1:26.13 107.97
2 5 2/U16 FFS2651422 2002 MEUCCI FLAVIE AP ORRES EMBRUN 41.70 44.68 1:26.38 110.81
3 8 3/U16 FFS2656830 2003 COLLE LUCIE MJ US CHAUMERAN 42.11 44.30 1:26.41 111.16
4 3 4/U16 FFS2651423 2002 CHARRON FANNY AP ORRES EMBRUN 41.92 44.57 1:26.49 112.07
5 12 5/U16 FFS2651880 2003 BRUN LOLA SA ND BELLECOMB 41.73 45.07 1:26.80 115.59
6 39 6/U16 FFS2666259 2002 COLLIN SIXTINE SA CO VAL THO 42.76 44.43 1:27.19 120.03
7 49 7/U16 FFS2686060 2002 LIBOUREAU CHLOE IF RCF 42.36 44.84 1:27.20 120.14
8 24 8/U16 FFS2647551 2002 MOURIER SALOME MB CS LA CLUSAZ 42.21 45.10 1:27.31 121.40
8 36 8/U16 FFS2647087 2003 HALLUIN MOLLY AP CO DEVOLUY 42.35 44.96 1:27.31 121.40
10 9 10/U16 FFS2646544 2002 BLANC LOLA DA SC ALPE HUEZ 42.58 44.75 1:27.33 121.62
11 6 11/U16 FFS2659525 2002 GIRARD LISA AP GAP ORCIERES 42.63 45.02 1:27.65 125.26
12 10 12/U16 FFS2660344 2003 DECOURT LOANE SA TCAM-FECLAZ 43.03 44.94 1:27.97 128.91
13 31 13/U16 FFS2646815 2002 AUMONT LOUISE SA SC ROCHETTE 42.95 45.31 1:28.26 132.21
14 18 14/U16 FFS2666353 2003 TRESS LISA DA GUC GRENOBLE 42.77 45.50 1:28.27 132.32
15 15 15/U16 FFS2663189 2003 AYASSE CLEMENCE AP ASPTT GAP 42.41 45.96 1:28.37 133.46
16 54 16/U16 FFS2657873 2003 MARREAU GILLONE AP GAP ORCIERES 42.83 45.61 1:28.44 134.25
17 29 17/U16 FFS2655247 2003 MEYER HOPE AP SERRE CHEVAL 43.37 45.09 1:28.46 134.48
18 11 18/U16 FFS2651437 2003 MORELON ROMANE SA ST SORLIN 42.57 45.92 1:28.49 134.82
19 23 19/U16 FFS2650018 2003 VERA ZOE SA CO VAL THO 42.67 45.86 1:28.53 135.28
20 20 20/U16 FFS2662958 2003 STERVINOU LILI ROSE SA SC MENUIRES 43.66 44.95 1:28.61 136.19
21 51 21/U16 FFS2653195 2002 DUBOIS JULIA PO ASM PAU 43.21 45.44 1:28.65 136.64
22 13 22/U16 FFS2659004 2003 MIR NOEMIE DA CO 7 LAUX GR 43.14 45.66 1:28.80 138.35
23 30 23/U16 FFS2648883 2002 GIROUSSE GAELLE SA CS VALMOREL 43.32 45.61 1:28.93 139.83
24 53 24/U16 FFS2649609 2002 BECOUZE EMMA MB CS MEGEVE 43.70 45.28 1:28.98 140.40
25 63 25/U16 FFS2662306 2002 FREYTET ENOLA PE SC ST LARY 43.62 45.41 1:29.03 140.97
26 1 26/U16 FFS2650424 2003 HOCH LISA MJ SC J.GESSIEN 43.06 46.41 1:29.47 145.97
27 45 27/U16 FFS2675675 2002 REYNAUD BOISSON LISA LY ASPTT GDLYON 43.65 45.87 1:29.52 146.54
28 64 28/U16 FFS2649691 2002 ECHARDOUR LAUREEN SA SC ROCHETTE 44.09 45.74 1:29.83 150.07
29 7 29/U16 FFS2645312 2002 VERGELY NINA PE SC FT ROMEU 43.15 46.80 1:29.95 151.43
30 16 30/U16 FFS2651345 2002 STAFFORD GUISANE PE AVALANCHE 43.95 46.30 1:30.25 154.85
31 43 31/U16 FFS2651578 2003 ALBERT OLIVIA DA SC DEUX ALPE 44.47 45.83 1:30.30 155.42
32 14 32/U16 FFS2656249 2003 VIAL LIA AP CSH BRIANCON 43.72 46.59 1:30.31 155.53
33 27 33/U16 FFS2650958 2003 MISZEZUK JULIETTE DA SC DEUX ALPE 43.87 46.47 1:30.34 155.87
34 26 34/U16 FFS2656062 2003 HAIG TILLY MB JEAN D'AULPS 44.26 46.26 1:30.52 157.92
35 35 35/U16 FFS2651409 2003 PINCEMIN AURORE DA CO 7 LAUX GR 44.11 46.44 1:30.55 158.26
36 46 36/U16 FFS2657463 2002 PEAN MAIA MB SC ST GERVAI 44.61 45.95 1:30.56 158.38
37 34 37/U16 FFS2651243 2002 CARMINATI ALICE DA VILLARDELANS 44.24 46.64 1:30.88 162.02
38 33 38/U16 FFS2652631 2003 MARIOTTI CELINE AP ORC MERLETTE 44.62 46.89 1:31.51 169.18
39 47 39/U16 FFS2649308 2002 SPECKBACHER LIV MV VT MULHOUSE 44.40 47.34 1:31.74 171.80
40 52 40/U16 FFS2663891 2002 CAUMETTE CANDICE PE SKI CLUB AX 44.36 47.42 1:31.78 172.26
41 61 41/U16 FFS2652972 2002 CHAUVEAU CAROLINE MB SC GD BORNAN 44.53 47.26 1:31.79 172.37
42 71 42/U16 FFS2686702 2003 AUBERT MAELLE DA GUC GRENOBLE 45.20 47.12 1:32.32 178.40
43 73 43/U16 FFS2657551 2003 SIBUE JUSTINE SA ST SORLIN 45.26 47.08 1:32.34 178.63
44 56 44/U16 FFS2666089 2003 CASALI FIONA SA TCAM-FECLAZ 44.94 47.47 1:32.41 179.42
45 37 45/U16 FFS2658196 2003 MEYNET CORDONNIER EMMA MB SC BELLEVAUX 45.34 47.12 1:32.46 179.99
46 79 46/U16 FFS2648732 2002 SALLES MARIE LOU SA SC MONTALBER 45.56 47.11 1:32.67 182.38
47 62 47/U16 FFS2644605 2002 GRANDJACQUES EPHISE MB SC ST GERVAI 45.72 46.99 1:32.71 182.84
48 74 48/U16 FFS2666941 2003 BRUNEL CLEA DA CO 7 LAUX GR 45.81 46.99 1:32.80 183.86
49 58 49/U16 FFS2663609 2003 LEYGUE CREPY CLEMENCE MB S.C. CHATEL 45.26 47.71 1:32.97 185.80
50 40 50/U16 FFS2655674 2002 SALVI NINA MJ SC MONT D'OR 45.56 47.61 1:33.17 188.07
51 42 51/U16 FFS2672499 2003 DE BOUVILLE ROXANE PE SKI CLUB AX 45.82 47.46 1:33.28 189.32
52 21 52/U16 FFS2671523 2003 AURIAU LILOU PE SC ST LARY 46.22 47.12 1:33.34 190.01
53 65 53/U16 FFS2668359 2002 PERRILLAT BOITEUX KELLY MB CA BONNEVILL 45.32 48.05 1:33.37 190.35
54 70 54/U16 FFS2651475 2002 LAPLAGNE EMMA PE SC CAUTERETS 45.52 48.10 1:33.62 193.19
55 57 55/U16 FFS2669845 2002 CAILLE EMILIE CA CS AURON 45.99 47.73 1:33.72 194.33
56 38 56/U16 FFS2676233 2002 DEBOIS ZOE MJ SC MONT D'OR 45.42 48.68 1:34.10 198.65
57 67 57/U16 FFS2657219 2003 DROUFFE LOU DA SC DEUX ALPE 46.55 47.62 1:34.17 199.45
58 97 58/U16 FFS2657040 2003 NAVALE CLELIA DA VILL.RECULAS 47.06 47.70 1:34.76 206.16
59 80 59/U16 FFS2653203 2002 MICHEL MAZAN LOU DA CS ST PIERRE 46.64 48.50 1:35.14 210.49
60 75 60/U16 FFS2650756 2002 GAUCHE ISALINE MJ SC MONT D'OR 46.33 48.86 1:35.19 211.06
61 78 61/U16 FFS2666771 2003 AGUIAR MARIE PO AS BARETOUS 47.02 48.63 1:35.65 216.29
62 98 62/U16 FFS2675430 2002 MOUNIER KAREN DA CHAMROUSSE S 47.02 48.69 1:35.71 216.97
63 77 63/U16 FFS2654881 2003 RAVIER ORIANNE SA CS KARELLIS 46.52 49.25 1:35.77 217.66
64 59 64/U16 FFS2671853 2003 CARBONE MARGAUX DA LANS VERCORS 46.79 49.01 1:35.80 218.00
65 91 65/U16 FFS2652423 2003 MORGILLO ILONA DA SC ALPE HUEZ 47.07 48.90 1:35.97 219.93
66 102 66/U16 FFS2661014 2002 PARGADE CHARLOTTE PO CS GOURETTE 47.19 49.21 1:36.40 224.82
67 85 67/U16 FFS2639299 2002 SCHANDENE ZALIE DA SC ALPE HUEZ 47.50 48.92 1:36.42 225.05
68 76 68/U16 FFS2661450 2002 ARNAUD CHARLINE DA CS CORRENCON 47.05 49.42 1:36.47 225.62
68 90 68/U16 FFS2662772 2002 CORNILLAT LUNA MORA MB CS FLAINE 47.62 48.85 1:36.47 225.62
70 81 70/U16 FFS2666224 2003 PEIZERAT ANGELE DA CO 7 LAUX GR 47.80 48.86 1:36.66 227.78
71 82 71/U16 FFS2655201 2002 GUILLOT SOPHIA DA SC VAUJANY 47.81 49.29 1:37.10 232.79
72 55 72/U16 FFS2657445 2003 PERNET ANGELE MB SC MORZ AVO 46.69 50.47 1:37.16 233.47
73 69 73/U16 FFS2671984 2003 ESCALONA MARIE PE PEYRAGUDES 48.27 49.03 1:37.30 235.06
74 60 74/U16 FFS2657430 2003 DIZAR AMANDA MB SC MORZ AVO 47.94 49.56 1:37.50 237.34
75 84 75/U16 FFS2660547 2002 PLOQUIN CHARLINE CA ANTIBES AZUR 48.82 48.80 1:37.62 238.70
76 101 76/U16 FFS2665073 2002 BRUNEL PALOMA CE SC MONTPELLI 48.65 49.05 1:37.70 239.62
77 44 77/U16 FFS2650954 2002 CHAMEL MARGOT MB CS ARGENTIER 52.16 46.30 1:38.46 248.26
78 103 78/U16 FFS2641654 2002 ANDRE LILIE DA ESF ALPE D'H 48.14 50.38 1:38.52 248.95
79 99 79/U16 FFS2663867 2003 PAPON JADE AU SC DE BESSE 48.59 50.22 1:38.81 252.24
80 105 80/U16 FFS2651266 2003 MORIANO CARLA SA VAL D'ISERE 48.77 50.61 1:39.38 258.73
81 89 81/U16 FFS2675991 2002 VACHEZ MEIJE DA CHAMROUSSE S 48.27 51.39 1:39.66 261.92
82 104 82/U16 FFS2681742 2002 CANAC ALAZAIS DA VOIRON SKI M 49.21 50.50 1:39.71 262.49
83 92 83/U16 FFS2652871 2003 COHADON MANON AU SC MONT DORE 49.02 50.78 1:39.80 263.51
84 96 84/U16 FFS2667199 2002 SZABADI MATHILDE MV SC BONHOMME 49.39 51.33 1:40.72 273.98
85 100 85/U16 FFS2646419 2002 MERLE CLEMENCE AU SC MONT DORE 48.71 52.12 1:40.83 275.23
86 87 86/U16 FFS2662425 2002 PINQUE PERRINE PO AS BARETOUS 49.57 51.83 1:41.40 281.71
87 95 87/U16 FFS2674361 2003 TANCEREL ROMANE MJ SC MONT D'OR 49.40 52.44 1:41.84 286.72
88 93 88/U16 FFS2671597 2002 MATHEVET MARIE ANGE IF RCF 50.45 51.60 1:42.05 289.11
89 106 89/U16 FFS2650865 2003 BEALLET LULA DA ESF ALPE D'H 51.32 51.52 1:42.84 298.10
90 110 90/U16 FFS2653056 2002 TEIL JULIETTE AU SC LIORAN 51.60 54.35 1:45.95 333.48
91 109 91/U16 FFS2673427 2002 GENEVRIER AZURE FZ SPORT HIV FZ 52.09 54.89 1:46.98 345.20
92 112 92/U16 FFS2667601 2002 NEEL MARINE FZ SC CHAZELLES 54.76 54.93 1:49.69 376.04
93 113 93/U16 FFS2674496 2003 BARBIER AGATHE BO DIJON SKI CL 53.53 56.49 1:50.02 379.79
Abandons
2 FFS2659224 2002 DUMONT ZOE MB LES HOUCHES
4 FFS2647599 2003 MOUTON CLARISSE MJ SC J.GESSIEN
17 FFS2649274 2002 ARMAND INES AP CS RISOUL 42.97
19 FFS2659997 2002 VILLANI SHANIA PE PEYRAGUDES 47.03
22 FFS2660341 2003 BAL LORIANE SA SC AILLONS 43.33
28 FFS2653608 2003 LAMOUREUX ROMANE SA SC ENTREMONT 47.00
50 FFS2648881 2002 GIROUSSE FLORE SA CS VALMOREL
66 FFS2647613 2002 BIZOT ORIANNE AP SKI ACADEMIE 47.63
72 FFS2651522 2003 BERNAZ LAURINE MB SC BRISON 44.81
88 FFS2652892 2002 LEYBROS CHLOE AU SC LIORAN 48.80
94 FFS2671848 2002 GRASSLER EMMA MV SCV THANN 51.27
107 FFS2662596 2003 BERGAMINI LILOU MV STA V WEISS 47.97
111 FFS2687255 2003 BRUN TALIA DA VOIRON SKI M 53.07
Disqualifiés
86 FFS2645419 2002 PERRIER CANDICE SA SC ARECHES 46.67
Non partants
32 FFS2647645 2002 RICCHI JULIA DA CO 7 LAUX GR
41 FFS2663015 2003 GODEL LILOU MV SCS GUEBWILL
48 FFS2658170 2003 LAILLER CHIARA AP CO PRALOUP
68 FFS2667246 2003 BARJAU SANDRA PE CAMBRE D'AZ
83 FFS2667986 2003 MEDINA NICOLE PE CAMBRE D'AZ
108 FFS2652888 2002 NEGRE ANNA AU SC LIORAN